TimeEST,TemperatureF,Dew PointF,Humidity,Sea Level PressureIn,VisibilityMPH,Wind Direction,Wind SpeedMPH,Gust SpeedMPH,PrecipitationIn,Events,Conditions,WindDirDegrees,DateUTC
12:53 AM,45.0,36.0,71,30.35,10.0,NNE,20.7,-,N/A,,Overcast,20,2012-11-15 05:53:00
1:53 AM,45.0,37.0,74,30.35,10.0,NNE,19.6,24.2,N/A,,Overcast,30,2012-11-15 06:53:00
2:53 AM,46.0,37.0,71,30.34,10.0,NNE,17.3,25.3,N/A,,Overcast,20,2012-11-15 07:53:00
3:53 AM,46.0,37.9,73,30.33,10.0,NNE,20.7,27.6,N/A,,Overcast,30,2012-11-15 08:53:00
4:53 AM,46.0,37.0,71,30.33,10.0,NNE,20.7,26.5,N/A,,Overcast,20,2012-11-15 09:53:00
5:53 AM,46.0,37.9,73,30.33,10.0,NNE,19.6,26.5,N/A,,Overcast,20,2012-11-15 10:53:00
6:53 AM,46.0,37.9,73,30.34,10.0,NNE,18.4,26.5,N/A,,Overcast,30,2012-11-15 11:53:00
7:53 AM,46.9,39.0,74,30.34,10.0,NNE,13.8,24.2,N/A,,Overcast,20,2012-11-15 12:53:00
8:53 AM,46.9,39.0,74,30.35,10.0,North,18.4,-,N/A,,Overcast,10,2012-11-15 13:53:00
9:53 AM,48.0,37.9,68,30.34,10.0,NNE,19.6,24.2,N/A,,Overcast,20,2012-11-15 14:53:00
10:53 AM,46.9,39.9,77,30.32,10.0,NNE,20.7,27.6,N/A,,Overcast,20,2012-11-15 15:53:00
11:53 AM,46.9,39.9,77,30.30,10.0,North,19.6,-,N/A,,Overcast,10,2012-11-15 16:53:00
12:53 PM,48.0,41.0,77,30.27,10.0,North,21.9,28.8,N/A,,Overcast,10,2012-11-15 17:53:00
1:53 PM,48.0,41.0,77,30.27,10.0,North,19.6,-,N/A,,Overcast,10,2012-11-15 18:53:00
2:53 PM,46.9,41.0,80,30.27,10.0,NNE,17.3,-,N/A,,Overcast,20,2012-11-15 19:53:00
3:53 PM,46.9,41.0,80,30.27,10.0,North,16.1,-,N/A,,Overcast,10,2012-11-15 20:53:00
4:53 PM,46.0,41.0,83,30.27,10.0,North,18.4,-,N/A,,Overcast,10,2012-11-15 21:53:00
5:53 PM,45.0,41.0,86,30.27,7.0,North,15.0,-,N/A,,Overcast,360,2012-11-15 22:53:00
6:00 PM,44.6,41.0,87,30.27,9.0,North,13.8,-,N/A,,Overcast,350,2012-11-15 23:00:00
6:53 PM,45.0,42.1,90,30.27,10.0,North,16.1,23.0,N/A,,Overcast,360,2012-11-15 23:53:00
7:48 PM,44.6,42.8,93,30.28,8.0,North,12.7,-,N/A,,Overcast,360,2012-11-16 00:48:00
7:53 PM,45.0,42.1,90,30.27,7.0,North,16.1,-,N/A,,Overcast,360,2012-11-16 00:53:00
8:43 PM,44.6,42.8,93,30.26,4.0,North,17.3,-,0.00,Rain,Light Rain,10,2012-11-16 01:43:00
8:53 PM,44.1,43.0,96,30.27,4.0,North,15.0,-,0.00,Rain,Light Rain,360,2012-11-16 01:53:00
9:01 PM,44.6,42.8,93,30.27,5.0,North,13.8,-,0.00,,Overcast,360,2012-11-16 02:01:00
9:14 PM,44.6,42.8,93,30.27,7.0,North,12.7,-,0.00,,Overcast,10,2012-11-16 02:14:00
9:27 PM,44.6,42.8,93,30.27,10.0,North,12.7,-,0.00,,Overcast,10,2012-11-16 02:27:00
9:53 PM,45.0,42.1,90,30.26,6.0,NNE,17.3,-,0.00,,Overcast,20,2012-11-16 02:53:00
10:53 PM,45.0,41.0,86,30.26,10.0,North,15.0,-,0.00,,Overcast,10,2012-11-16 03:53:00
11:26 PM,44.6,41.0,87,30.25,10.0,North,15.0,-,N/A,,Overcast,10,2012-11-16 04:26:00
11:53 PM,44.1,39.9,85,30.25,10.0,North,15.0,-,N/A,,Overcast,10,2012-11-16 04:53:00